FSIA/SEZ METAR and TAF weather

Enter ICAO airport designator
Station Type Date Time Source
FSIA METAR 2019/08/17 11:00 UTC NOAA

FSIA 171100Z 11008KT 070V180 9999 FEW024 29/23 Q1010 NOSIG


Station Type Date Time Source
FSIA Decoded METAR 2019/08/17 11:00 UTC NOAA

Station name not available
Aug 17, 2019 - 07:00 AM EDT / 2019.08.17 1100 UTC
Wind: from the ESE (110 degrees) at 9 MPH (8 KT) (direction variable):0
Visibility: greater than 7 mile(s):0
Sky conditions: mostly clear
Temperature: 84 F (29 C)
Dew Point: 73 F (23 C)
Relative Humidity: 70%
Pressure (altimeter): 29.83 in. Hg (1010 hPa)
ob: FSIA 171100Z 11008KT 070V180 9999 FEW024 29/23 Q1010 NOSIG
cycle: 11

Station Type Date Time Source
FSIA TAF 2019/08/17 12:10 UTC NOAA

TAF FSIA 171102Z 1712/1812 16015KT 9999 SCT022 PROB40
TEMPO 1720/1812 8000 -SHRA FEW013 BKN018

Example: see airport list